ENEV

Harstad / Narvik , Evenes Airport

Evenes, Norway
METAR ENEV 220020Z AUTO 04003KT 9999 NCD M22/M25 Q1027 RMK WIND 1400FT 15005KT
Observed Flight Rules
Feb-22 @ 00:20 UTC (4 hours ago) Visual Flight Rules
Wind Visibility Clouds
40° at 3 knots 10,000+ meters
  • Clear skies
Temperatures Readings
Current -22°C / -8°F
Dewpoint -25°C / -13°F
Humidity 77%
Altimeter 30.32" Hg
Pressure 1027 hPa
Elevation 26
METAR ENEV 220020Z AUTO 04003KT 9999 NCD M22/M25 Q1027 RMK WIND 1400FT 15005KT
Observed Flight Rules
Feb-22 @ 00:20 UTC
(4 hours ago)
VFR
Wind Visibility
40° at 3 knots 10,000+ meters
Clouds
  • Clear skies
Temperature Dewpoint
-22°C / -8°F -25°C / -13°F
Humidity Altimeter Pressure
77% 30.32" Hg 1027 hPa